TimeMST,TemperatureF,Dew PointF,Humidity,Sea Level PressureIn,VisibilityMPH,Wind Direction,Wind SpeedMPH,Gust SpeedMPH,PrecipitationIn,Events,Conditions,WindDirDegrees,DateUTC
12:53 AM,15.1,12.9,91,29.53,4.0,Calm,Calm,-,N/A,,Partly Cloudy,0,2012-12-18 07:53:00
1:35 AM,17.6,14.0,86,29.43,2.5,Calm,Calm,-,0.00,Snow,Light Snow,0,2012-12-18 08:35:00
1:43 AM,17.6,15.8,93,29.42,1.0,Calm,Calm,-,0.00,Snow,Light Snow,0,2012-12-18 08:43:00
1:46 AM,17.6,15.8,93,29.43,1.2,Calm,Calm,-,0.00,Snow,Light Snow,0,2012-12-18 08:46:00
1:53 AM,18.0,15.1,88,29.53,4.0,Calm,Calm,-,0.00,Snow,Light Snow,0,2012-12-18 08:53:00
2:53 AM,16.0,14.0,92,29.53,6.0,Calm,Calm,-,0.00,,Mostly Cloudy,0,2012-12-18 09:53:00
3:53 AM,15.8,12.2,86,29.43,7.0,Calm,Calm,-,N/A,,Clear,0,2012-12-18 10:53:00
4:53 AM,8.1,6.1,92,29.55,7.0,West,4.6,-,N/A,,Partly Cloudy,280,2012-12-18 11:53:00
5:07 AM,10.4,6.8,85,29.44,2.0,West,5.8,-,N/A,,Mostly Cloudy,260,2012-12-18 12:07:00
5:09 AM,10.4,8.6,92,29.44,0.8,West,4.6,-,N/A,,Mist,260,2012-12-18 12:09:00
5:26 AM,8.6,6.8,92,29.45,1.2,Calm,Calm,-,N/A,,Overcast,0,2012-12-18 12:26:00
5:31 AM,8.6,6.8,92,29.45,0.8,Calm,Calm,-,N/A,,Mist,0,2012-12-18 12:31:00
5:53 AM,10.9,9.0,92,29.55,0.2,SW,4.6,-,N/A,Fog,Light Freezing Fog,220,2012-12-18 12:53:00
6:53 AM,9.0,7.0,92,29.57,0.2,West,3.5,-,N/A,Fog,Light Freezing Fog,280,2012-12-18 13:53:00
7:10 AM,10.4,8.6,92,29.46,1.0,WSW,4.6,-,N/A,,Overcast,250,2012-12-18 14:10:00
7:13 AM,10.4,8.6,92,29.46,2.0,WSW,5.8,-,N/A,,Overcast,240,2012-12-18 14:13:00
7:20 AM,12.2,8.6,85,29.46,6.0,WSW,6.9,-,N/A,,Overcast,240,2012-12-18 14:20:00
7:53 AM,19.0,16.0,88,29.56,10.0,WSW,8.1,-,N/A,,Overcast,250,2012-12-18 14:53:00
8:31 AM,24.8,21.2,86,29.47,10.0,WSW,12.7,-,0.00,,Overcast,250,2012-12-18 15:31:00
8:53 AM,30.0,26.1,85,29.55,10.0,West,17.3,23.0,0.00,,Overcast,260,2012-12-18 15:53:00
9:31 AM,30.2,28.4,93,29.48,1.8,West,20.7,26.5,0.00,Snow,Light Snow,260,2012-12-18 16:31:00
9:43 AM,30.2,28.4,93,29.49,1.2,West,18.4,-,0.00,Snow,Light Snow,260,2012-12-18 16:43:00
9:53 AM,30.9,28.0,89,29.57,1.2,West,13.8,-,0.00,Snow,Light Snow,260,2012-12-18 16:53:00
10:04 AM,30.2,28.4,93,29.49,1.0,West,17.3,26.5,0.00,Snow,Light Snow,270,2012-12-18 17:04:00
10:14 AM,30.2,26.6,86,29.50,1.5,West,18.4,26.5,0.00,Snow,Light Snow,280,2012-12-18 17:14:00
10:19 AM,30.2,26.6,86,29.50,3.0,West,16.1,26.5,0.00,Snow,Light Snow,280,2012-12-18 17:19:00
10:53 AM,30.0,26.1,85,29.58,10.0,West,15.0,-,0.00,,Overcast,280,2012-12-18 17:53:00
11:19 AM,28.4,23.0,80,29.51,10.0,West,17.3,26.5,N/A,,Mostly Cloudy,280,2012-12-18 18:19:00
11:39 AM,28.4,23.0,80,29.51,10.0,West,19.6,25.3,N/A,,Mostly Cloudy,270,2012-12-18 18:39:00
11:53 AM,28.0,21.9,78,29.60,10.0,West,15.0,25.3,N/A,,Overcast,280,2012-12-18 18:53:00
12:53 PM,26.1,19.9,78,29.62,10.0,West,16.1,27.6,N/A,,Overcast,280,2012-12-18 19:53:00
1:53 PM,25.0,18.0,75,29.65,10.0,West,23.0,29.9,N/A,,Overcast,280,2012-12-18 20:53:00
2:30 PM,23.0,15.8,74,29.58,10.0,WNW,20.7,27.6,N/A,,Overcast,290,2012-12-18 21:30:00
2:53 PM,21.0,12.9,71,29.69,10.0,WNW,17.3,-,N/A,,Overcast,300,2012-12-18 21:53:00
3:15 PM,19.4,12.2,74,29.61,10.0,WNW,18.4,-,N/A,,Overcast,300,2012-12-18 22:15:00
3:53 PM,19.9,12.9,74,29.72,10.0,WNW,17.3,23.0,N/A,,Overcast,290,2012-12-18 22:53:00
4:31 PM,19.4,10.4,68,29.63,10.0,WNW,18.4,-,N/A,,Overcast,300,2012-12-18 23:31:00
4:53 PM,19.0,10.9,71,29.75,10.0,WNW,18.4,-,N/A,,Overcast,300,2012-12-18 23:53:00
5:25 PM,15.8,8.6,73,29.65,10.0,WNW,16.1,-,N/A,,Overcast,290,2012-12-19 00:25:00
5:53 PM,15.1,8.1,74,29.78,10.0,West,12.7,-,N/A,,Scattered Clouds,280,2012-12-19 00:53:00
6:53 PM,12.9,7.0,77,29.81,10.0,West,15.0,-,N/A,,Clear,270,2012-12-19 01:53:00
7:53 PM,12.0,6.1,77,29.82,10.0,West,12.7,-,N/A,,Clear,270,2012-12-19 02:53:00
8:53 PM,12.0,7.0,80,29.82,4.0,West,9.2,-,0.00,Snow,Light Snow,260,2012-12-19 03:53:00
9:07 PM,12.2,8.6,85,29.73,2.0,West,9.2,-,0.00,Snow,Light Snow,270,2012-12-19 04:07:00
9:15 PM,12.2,8.6,85,29.73,1.5,West,9.2,-,0.00,Snow,Light Snow,260,2012-12-19 04:15:00
9:32 PM,12.2,10.4,92,29.73,1.0,West,11.5,-,0.00,Snow,Light Snow,280,2012-12-19 04:32:00
9:41 PM,14.0,10.4,86,29.74,1.5,WNW,13.8,-,0.00,Snow,Light Snow,290,2012-12-19 04:41:00
9:53 PM,14.0,10.0,84,29.83,1.5,WNW,12.7,-,0.00,Snow,Light Snow,290,2012-12-19 04:53:00
10:53 PM,14.0,10.0,84,29.86,1.2,West,10.4,-,0.00,Snow,Light Snow,270,2012-12-19 05:53:00
11:53 PM,14.0,10.0,84,29.89,1.2,WNW,11.5,-,0.00,Snow,Light Snow,290,2012-12-19 06:53:00